Airport View

Enter AWOS ICAO identifier for current METAR.

ex. KFNL

KNQX 080553Z AUTO 07007KT 10SM CLR 30/25 A3009 RMK AO2 SLP188 T03000250 10317 20289 58012 $

8 Aug 2020 06:21

Other Area AWOS: KEYW - KMTH - KMKY - MUVR

TAF KNQX 0723/0823 VRB06KT 9999 SCT022 SCT250 QNH3000INS BECMG 0808/0810 09007KT 9999 VCSH SCT025 SCT250 QNH3001INS AUTOMATED SENSOR METWATCH 0802 TIL 0810 T29/0810Z T34/0819Z FN20073